Time;durP1;ratioP1;P1;durP2;ratioP2;P2;SDS_P1;SDS_P2;PMS_P1;PMS_P2;Temp;Humidity;BMP_temperature;BMP_pressure;BME280_temperature;BME280_humidity;BME280_pressure;Samples;Min_cycle;Max_cycle;Signal;HPM_P1;HPM_P2
2023/05/02 06:02:13;;;;;;;5.55;1.13;;;;;;;;;;4928785;27;20449;-69
2023/05/02 06:04:40;;;;;;;5.63;1.33;;;;;;;;;;4886635;28;20139;-71
2023/05/02 06:07:07;;;;;;;3.45;1.20;;;;;;;;;;4967254;28;20050;-71
2023/05/02 06:09:33;;;;;;;5.03;1.15;;;;;;;;;;4993529;28;20150;-73
2023/05/02 06:12:01;;;;;;;3.38;1.30;;;;;;;;;;4970188;28;20046;-71
2023/05/02 06:14:32;;;;;;;6.00;1.42;;;;;;;;;;4975292;28;20053;-68
2023/05/02 06:16:59;;;;;;;4.97;1.60;;;;;;;;;;4970658;28;20054;-73
2023/05/02 06:19:30;;;;;;;5.03;1.50;;;;;;;;;;4977104;28;20118;-72
2023/05/02 06:21:57;;;;;;;5.88;1.20;;;;;;;;;;4972923;28;20066;-71
2023/05/02 06:24:23;;;;;;;3.10;1.20;;;;;;;;;;4970342;28;20053;-71
2023/05/02 06:26:50;;;;;;;4.60;1.50;;;;;;;;;;4985428;28;20051;-70
2023/05/02 06:29:17;;;;;;;11.60;1.70;;;;;;;;;;4979951;28;20054;-72
2023/05/02 06:31:57;;;;;;;4.97;1.42;;;;;;;;;;4965279;28;20057;-68
2023/05/02 06:34:23;;;;;;;7.75;1.38;;;;;;;;;;4976030;28;20065;-71
2023/05/02 06:36:56;;;;;;;8.88;1.80;;;;;;;;;;4972047;28;20083;-69
2023/05/02 06:39:22;;;;;;;7.10;1.58;;;;;;;;;;4979724;28;20054;-69
2023/05/02 06:41:49;;;;;;;8.45;1.55;;;;;;;;;;4967816;28;20060;-71
2023/05/02 06:44:18;;;;;;;5.90;1.50;;;;;;;;;;4975181;28;20059;-75
2023/05/02 06:46:48;;;;;;;7.88;1.77;;;;;;;;;;4971331;28;20050;-67
2023/05/02 06:49:15;;;;;;;6.22;1.70;;;;;;;;;;4982353;28;20063;-68
2023/05/02 06:51:41;;;;;;;6.65;1.55;;;;;;;;;;4968545;28;20209;-68
2023/05/02 06:54:10;;;;;;;;;;;;;;;;;;4989479;28;20062;-71
2023/05/02 06:56:38;;;;;;;4.70;1.50;;;;;;;;;;4978709;28;19933;-75
2023/05/02 06:59:07;;;;;;;7.28;1.70;;;;;;;;;;4972317;28;20054;-69
2023/05/02 07:01:33;;;;;;;5.93;1.85;;;;;;;;;;4975805;28;20060;-72
2023/05/02 07:04:02;;;;;;;5.15;1.55;;;;;;;;;;4971499;28;20074;-70
2023/05/02 07:06:35;;;;;;;8.43;1.95;;;;;;;;;;4964153;28;20174;-75
2023/05/02 07:09:02;;;;;;;7.87;2.23;;;;;;;;;;4975399;28;20061;-71
2023/05/02 07:11:29;;;;;;;9.35;1.75;;;;;;;;;;4996658;28;20062;-71
2023/05/02 07:13:59;;;;;;;7.07;1.40;;;;;;;;;;4952581;28;20090;-66
2023/05/02 07:16:32;;;;;;;4.78;1.75;;;;;;;;;;4978923;28;20125;-71
2023/05/02 07:18:59;;;;;;;5.63;1.30;;;;;;;;;;4949574;28;20431;-67
2023/05/02 07:21:26;;;;;;;4.90;1.33;;;;;;;;;;4963649;28;20058;-69
2023/05/02 07:23:54;;;;;;;5.43;1.23;;;;;;;;;;4927050;28;20062;-71
2023/05/02 07:26:26;;;;;;;7.93;1.58;;;;;;;;;;4965296;28;20294;-75
2023/05/02 07:29:00;;;;;;;3.03;1.30;;;;;;;;;;4958842;28;20461;-68
2023/05/02 07:31:26;;;;;;;2.88;1.10;;;;;;;;;;4963180;28;20138;-66
2023/05/02 07:33:54;;;;;;;5.50;1.58;;;;;;;;;;4950804;28;20083;-69
2023/05/02 07:36:20;;;;;;;3.33;1.20;;;;;;;;;;4963238;28;20518;-67
2023/05/02 07:38:49;;;;;;;4.40;1.48;;;;;;;;;;4956798;28;20059;-69
2023/05/02 07:41:19;;;;;;;5.57;1.45;;;;;;;;;;4961338;28;20272;-71
2023/05/02 07:43:48;;;;;;;5.68;1.20;;;;;;;;;;4965606;28;20051;-72
2023/05/02 07:46:20;;;;;;;6.43;1.30;;;;;;;;;;4967992;28;20089;-69
2023/05/02 07:48:46;;;;;;;6.78;1.67;;;;;;;;;;4960058;28;20059;-72
2023/05/02 07:51:14;;;;;;;7.80;1.60;;;;;;;;;;4954242;28;20069;-73
2023/05/02 07:53:43;;;;;;;7.35;1.52;;;;;;;;;;4938630;28;20059;-68
2023/05/02 07:56:11;;;;;;;3.70;1.50;;;;;;;;;;4959623;28;20055;-72
2023/05/02 07:58:41;;;;;;;5.18;1.50;;;;;;;;;;4944669;28;20050;-69
2023/05/02 08:01:08;;;;;;;7.90;1.35;;;;;;;;;;4961290;28;20073;-71
2023/05/02 08:03:36;;;;;;;5.50;1.52;;;;;;;;;;4952284;28;20051;-66
2023/05/02 08:06:02;;;;;;;6.18;1.42;;;;;;;;;;4964839;28;20062;-69
2023/05/02 08:08:33;;;;;;;7.32;1.60;;;;;;;;;;4969031;28;20066;-75
2023/05/02 08:10:59;;;;;;;4.70;1.67;;;;;;;;;;4941137;28;20138;-69
2023/05/02 08:13:28;;;;;;;4.25;1.48;;;;;;;;;;4962083;28;20211;-72
2023/05/02 08:15:57;;;;;;;8.25;1.48;;;;;;;;;;4956783;28;20095;-67
2023/05/02 08:18:26;;;;;;;7.05;1.48;;;;;;;;;;4965917;28;20047;-73
2023/05/02 08:20:55;;;;;;;6.40;1.48;;;;;;;;;;4955739;28;20595;-71
2023/05/02 08:23:22;;;;;;;5.93;1.52;;;;;;;;;;4962052;28;20055;-73
2023/05/02 08:25:48;;;;;;;3.90;1.30;;;;;;;;;;4959999;28;20899;-74
2023/05/02 08:28:18;;;;;;;4.10;1.35;;;;;;;;;;4965938;28;20154;-72
2023/05/02 08:30:47;;;;;;;5.65;2.08;;;;;;;;;;4956615;28;20066;-73
2023/05/02 08:33:14;;;;;;;4.93;1.48;;;;;;;;;;4961532;28;20149;-74
2023/05/02 08:35:41;;;;;;;8.20;1.58;;;;;;;;;;4962368;28;20501;-73
2023/05/02 08:38:11;;;;;;;6.63;1.30;;;;;;;;;;4961820;28;20121;-68
2023/05/02 08:40:41;;;;;;;5.07;1.38;;;;;;;;;;4959866;28;20057;-72
2023/05/02 08:43:08;;;;;;;7.13;1.58;;;;;;;;;;4930127;28;20830;-67
2023/05/02 08:45:37;;;;;;;6.78;1.20;;;;;;;;;;4961369;28;20521;-74
2023/05/02 08:48:06;;;;;;;4.88;1.23;;;;;;;;;;4960145;28;20403;-72
2023/05/02 08:50:48;;;;;;;5.25;1.38;;;;;;;;;;4969553;28;20086;-73
2023/05/02 08:53:18;;;;;;;5.32;1.08;;;;;;;;;;4955725;28;20089;-72
2023/05/02 08:55:45;;;;;;;4.53;1.40;;;;;;;;;;4960875;28;20094;-70
2023/05/02 08:58:12;;;;;;;5.80;1.58;;;;;;;;;;4956053;28;20059;-72
2023/05/02 09:00:41;;;;;;;5.70;1.17;;;;;;;;;;4949883;28;20050;-67
2023/05/02 09:03:16;;;;;;;5.82;1.33;;;;;;;;;;4952127;28;20050;-71
2023/05/02 09:05:50;;;;;;;5.72;1.33;;;;;;;;;;4955516;28;20055;-69
2023/05/02 09:08:22;;;;;;;5.00;1.20;;;;;;;;;;4960751;28;20112;-73
2023/05/02 09:10:49;;;;;;;3.85;1.08;;;;;;;;;;4971970;28;20054;-72
2023/05/02 09:13:30;;;;;;;3.97;1.30;;;;;;;;;;4936199;28;20054;-72
2023/05/02 09:16:03;;;;;;;7.32;1.30;;;;;;;;;;4935382;28;20054;-67
2023/05/02 09:18:31;;;;;;;3.05;1.15;;;;;;;;;;4954873;28;20086;-70
2023/05/02 09:20:58;;;;;;;7.13;2.00;;;;;;;;;;4956782;28;21184;-70
2023/05/02 09:23:35;;;;;;;7.45;1.80;;;;;;;;;;4944070;28;20073;-73
2023/05/02 09:26:10;;;;;;;3.65;1.25;;;;;;;;;;4955555;28;20069;-75
2023/05/02 09:28:42;;;;;;;5.50;1.52;;;;;;;;;;4948475;28;20054;-71
2023/05/02 09:31:12;;;;;;;7.47;1.65;;;;;;;;;;4961076;28;20118;-73
2023/05/02 09:33:39;;;;;;;3.83;1.40;;;;;;;;;;4933152;28;20055;-67
2023/05/02 09:36:06;;;;;;;11.27;1.67;;;;;;;;;;4956772;28;20210;-69
2023/05/02 09:38:36;;;;;;;5.78;1.00;;;;;;;;;;4954558;28;20118;-70
2023/05/02 09:41:03;;;;;;;4.03;1.23;;;;;;;;;;4958915;28;20066;-74
2023/05/02 09:43:32;;;;;;;5.63;1.20;;;;;;;;;;4930901;28;20081;-75
2023/05/02 09:46:14;;;;;;;6.78;1.38;;;;;;;;;;4944647;28;20600;-73
2023/05/02 09:49:02;;;;;;;5.10;1.38;;;;;;;;;;4955116;28;20058;-71
2023/05/02 09:51:30;;;;;;;11.52;1.33;;;;;;;;;;4927895;28;20055;-73
2023/05/02 09:54:01;;;;;;;8.10;1.30;;;;;;;;;;4923678;28;20614;-70
2023/05/02 09:56:48;;;;;;;4.97;1.20;;;;;;;;;;4915077;29;20055;-73
2023/05/02 09:59:17;;;;;;;3.13;1.17;;;;;;;;;;4919710;28;20062;-70
2023/05/02 10:01:53;;;;;;;3.08;1.10;;;;;;;;;;4917534;28;20061;-71
2023/05/02 10:04:22;;;;;;;3.13;1.20;;;;;;;;;;4923548;28;20063;-72
2023/05/02 10:06:51;;;;;;;4.75;1.27;;;;;;;;;;4927176;28;20055;-71
2023/05/02 10:09:19;;;;;;;5.28;1.23;;;;;;;;;;4967701;28;20086;-72
2023/05/02 10:11:46;;;;;;;6.20;1.35;;;;;;;;;;4956522;28;20055;-73
2023/05/02 10:14:16;;;;;;;4.88;1.20;;;;;;;;;;4955329;28;20109;-70
2023/05/02 10:16:47;;;;;;;2.95;1.38;;;;;;;;;;4951446;28;20059;-74
2023/05/02 10:19:16;;;;;;;3.42;1.30;;;;;;;;;;4959473;28;20121;-65
2023/05/02 10:21:43;;;;;;;8.00;1.25;;;;;;;;;;4935214;28;20165;-72
2023/05/02 10:24:16;;;;;;;3.90;1.20;;;;;;;;;;4960550;28;20054;-69
2023/05/02 10:26:46;;;;;;;2.42;1.10;;;;;;;;;;4941705;28;20081;-75
2023/05/02 10:29:21;;;;;;;4.95;1.10;;;;;;;;;;4973861;28;20073;-72
2023/05/02 10:31:48;;;;;;;4.60;1.70;;;;;;;;;;4954787;28;21362;-75
2023/05/02 10:34:16;;;;;;;6.33;1.30;;;;;;;;;;4959523;28;20158;-74
2023/05/02 10:36:42;;;;;;;4.55;1.08;;;;;;;;;;4952265;28;20050;-72
2023/05/02 10:39:08;;;;;;;3.50;1.27;;;;;;;;;;4958508;28;20234;-69
2023/05/02 10:41:38;;;;;;;2.42;1.42;;;;;;;;;;4957346;28;20059;-70
2023/05/02 10:44:10;;;;;;;3.40;1.67;;;;;;;;;;4957404;28;20066;-69
2023/05/02 10:46:40;;;;;;;4.75;1.65;;;;;;;;;;4947508;28;20047;-71
2023/05/02 10:49:13;;;;;;;5.53;1.60;;;;;;;;;;4963790;28;20065;-66
2023/05/02 10:51:43;;;;;;;3.88;1.55;;;;;;;;;;4961114;28;20055;-71
2023/05/02 10:54:19;;;;;;;5.00;1.38;;;;;;;;;;4934815;28;20409;-76
2023/05/02 10:57:03;;;;;;;4.82;1.63;;;;;;;;;;4952274;28;20050;-68
2023/05/02 10:59:32;;;;;;;6.07;2.00;;;;;;;;;;4965618;28;20070;-67
2023/05/02 11:02:00;;;;;;;6.07;1.65;;;;;;;;;;4955687;28;20054;-67
2023/05/02 11:04:27;;;;;;;5.05;1.42;;;;;;;;;;4964900;28;20098;-71
2023/05/02 11:07:15;;;;;;;11.07;1.80;;;;;;;;;;4955847;28;20234;-73
2023/05/02 11:09:41;;;;;;;5.00;1.50;;;;;;;;;;4977383;28;20139;-69
2023/05/02 11:12:07;;;;;;;3.92;1.45;;;;;;;;;;4967336;28;20053;-71
2023/05/02 11:14:47;;;;;;;8.02;1.60;;;;;;;;;;4957157;28;20429;-69
2023/05/02 11:17:19;;;;;;;4.85;1.67;;;;;;;;;;4959709;28;20055;-67
2023/05/02 11:20:04;;;;;;;3.28;1.45;;;;;;;;;;4940908;28;20059;-69
2023/05/02 11:22:35;;;;;;;4.95;1.65;;;;;;;;;;4945469;28;20074;-65
2023/05/02 11:25:06;;;;;;;6.10;1.63;;;;;;;;;;4949203;28;20069;-74
2023/05/02 11:27:39;;;;;;;5.18;1.40;;;;;;;;;;4962369;28;20054;-65
2023/05/02 11:30:08;;;;;;;7.75;1.80;;;;;;;;;;4960623;28;20059;-73
2023/05/02 11:32:54;;;;;;;3.33;1.60;;;;;;;;;;4930711;28;20474;-68
2023/05/02 11:35:21;;;;;;;4.53;1.40;;;;;;;;;;4954866;28;20055;-71
2023/05/02 11:37:53;;;;;;;1.92;1.33;;;;;;;;;;4954103;28;20054;-70
2023/05/02 11:40:22;;;;;;;4.00;1.45;;;;;;;;;;4949239;28;20105;-69
2023/05/02 11:42:54;;;;;;;3.22;1.58;;;;;;;;;;4929005;28;20063;-72
2023/05/02 11:45:42;;;;;;;;;;;;;;;;;;;;;
2023/05/02 11:48:09;;;;;;;4.43;1.67;;;;;;;;;;4943769;28;20063;-71
2023/05/02 11:50:41;;;;;;;5.80;1.65;;;;;;;;;;4966382;28;20057;-70
2023/05/02 11:53:18;;;;;;;5.10;1.70;;;;;;;;;;4971977;28;20073;-73
2023/05/02 11:55:46;;;;;;;7.47;1.60;;;;;;;;;;4952921;28;20114;-73
2023/05/02 11:58:15;;;;;;;6.25;1.50;;;;;;;;;;4960249;28;20193;-69
2023/05/02 12:00:48;;;;;;;4.07;1.58;;;;;;;;;;4950387;28;20138;-73
2023/05/02 12:03:28;;;;;;;4.93;1.42;;;;;;;;;;4949937;28;20130;-74
2023/05/02 12:05:57;;;;;;;6.25;1.60;;;;;;;;;;4937497;28;20114;-68
2023/05/02 12:08:23;;;;;;;;;;;;;;;;;;4967746;28;20078;-69
2023/05/02 12:10:51;;;;;;;6.03;1.90;;;;;;;;;;4957074;28;19952;-71
2023/05/02 12:13:17;;;;;;;9.83;1.70;;;;;;;;;;4956514;28;20090;-67
2023/05/02 12:15:47;;;;;;;4.53;1.60;;;;;;;;;;4955337;28;20377;-76
2023/05/02 12:18:14;;;;;;;5.78;1.88;;;;;;;;;;4960273;28;20067;-69
2023/05/02 12:20:43;;;;;;;8.30;1.80;;;;;;;;;;4953997;28;20066;-74
2023/05/02 12:23:13;;;;;;;4.70;1.75;;;;;;;;;;4951867;28;20058;-72
2023/05/02 12:25:40;;;;;;;5.35;2.00;;;;;;;;;;4946192;28;20058;-72
2023/05/02 12:28:07;;;;;;;4.20;1.77;;;;;;;;;;4964007;28;20054;-68
2023/05/02 12:30:37;;;;;;;4.18;1.73;;;;;;;;;;4955965;28;20047;-70
2023/05/02 12:33:05;;;;;;;3.53;1.55;;;;;;;;;;4945863;28;20063;-70
2023/05/02 12:35:33;;;;;;;5.85;1.75;;;;;;;;;;4944580;28;20054;-69
2023/05/02 12:38:12;;;;;;;5.40;1.90;;;;;;;;;;4973184;28;20059;-70
2023/05/02 12:40:47;;;;;;;5.72;2.10;;;;;;;;;;4957263;28;20051;-69
2023/05/02 12:43:16;;;;;;;3.90;1.65;;;;;;;;;;4968791;28;20063;-71
2023/05/02 12:45:52;;;;;;;4.80;1.80;;;;;;;;;;4934351;28;20062;-79
2023/05/02 12:48:24;;;;;;;8.90;1.70;;;;;;;;;;4943477;28;20054;-68
2023/05/02 12:50:51;;;;;;;11.02;2.42;;;;;;;;;;4947954;28;20050;-73
2023/05/02 12:53:37;;;;;;;6.68;1.88;;;;;;;;;;4976046;28;20210;-77
2023/05/02 12:56:07;;;;;;;4.32;1.63;;;;;;;;;;4944906;28;20124;-72
2023/05/02 12:58:59;;;;;;;3.45;1.80;;;;;;;;;;4965003;28;20053;-65
2023/05/02 13:01:30;;;;;;;7.18;1.98;;;;;;;;;;4957875;28;20114;-73
2023/05/02 13:03:58;;;;;;;4.68;1.80;;;;;;;;;;4952263;28;20069;-72
2023/05/02 13:06:26;;;;;;;4.82;1.67;;;;;;;;;;4971720;28;20089;-75
2023/05/02 13:09:03;;;;;;;5.18;2.00;;;;;;;;;;4980794;28;20041;-73
2023/05/02 13:11:30;;;;;;;4.28;1.90;;;;;;;;;;4982274;28;20057;-78
2023/05/02 13:13:58;;;;;;;6.55;1.95;;;;;;;;;;4947637;28;20054;-74
2023/05/02 13:16:28;;;;;;;4.22;1.83;;;;;;;;;;4956784;28;20090;-78
2023/05/02 13:18:59;;;;;;;5.53;1.70;;;;;;;;;;4954759;28;20090;-75
2023/05/02 13:21:25;;;;;;;6.10;2.00;;;;;;;;;;4961591;28;20058;-67
2023/05/02 13:23:57;;;;;;;6.68;1.63;;;;;;;;;;4943844;28;20058;-74
2023/05/02 13:26:24;;;;;;;5.40;1.67;;;;;;;;;;4950917;28;20174;-73
2023/05/02 13:28:55;;;;;;;6.93;1.73;;;;;;;;;;4948606;28;20058;-71
2023/05/02 13:31:21;;;;;;;7.53;2.05;;;;;;;;;;4961842;28;20063;-72
2023/05/02 13:33:53;;;;;;;4.18;1.63;;;;;;;;;;4956486;28;20063;-74
2023/05/02 13:36:24;;;;;;;5.32;1.77;;;;;;;;;;4905206;28;20063;-71
2023/05/02 13:38:53;;;;;;;5.30;1.92;;;;;;;;;;4949590;28;20055;-70
2023/05/02 13:41:20;;;;;;;4.88;1.80;;;;;;;;;;4950014;28;20082;-68
2023/05/02 13:43:48;;;;;;;8.32;1.98;;;;;;;;;;4951529;28;20065;-72
2023/05/02 13:46:14;;;;;;;5.68;2.25;;;;;;;;;;4958323;28;20073;-72
2023/05/02 13:48:41;;;;;;;7.57;2.00;;;;;;;;;;4948024;28;20061;-73
2023/05/02 13:51:08;;;;;;;6.97;1.60;;;;;;;;;;4975570;28;20140;-71
2023/05/02 13:53:37;;;;;;;6.90;2.03;;;;;;;;;;4963233;28;20064;-74
2023/05/02 13:56:03;;;;;;;5.00;1.60;;;;;;;;;;4957793;28;20062;-72
2023/05/02 13:58:33;;;;;;;5.45;1.90;;;;;;;;;;4953902;28;20050;-72
2023/05/02 14:01:03;;;;;;;9.05;1.73;;;;;;;;;;4935853;28;20066;-76
2023/05/02 14:03:39;;;;;;;6.28;1.83;;;;;;;;;;4939879;28;20066;-68
2023/05/02 14:06:07;;;;;;;4.95;2.00;;;;;;;;;;4966040;28;20066;-67
2023/05/02 14:08:38;;;;;;;4.30;1.90;;;;;;;;;;4962861;28;20065;-74
2023/05/02 14:11:07;;;;;;;7.63;1.90;;;;;;;;;;4957650;28;20058;-70
2023/05/02 14:13:33;;;;;;;5.97;2.05;;;;;;;;;;4956659;28;20063;-69
2023/05/02 14:16:02;;;;;;;5.15;1.88;;;;;;;;;;4941015;28;20054;-70
2023/05/02 14:18:40;;;;;;;4.60;1.65;;;;;;;;;;4956259;28;20065;-74
2023/05/02 14:21:11;;;;;;;5.60;2.38;;;;;;;;;;4953659;28;20062;-75
2023/05/02 14:23:38;;;;;;;5.50;1.90;;;;;;;;;;4951094;28;20062;-73
2023/05/02 14:26:19;;;;;;;;;;;;;;;;;;;;;
2023/05/02 14:28:46;;;;;;;7.15;1.63;;;;;;;;;;4942594;28;20078;-72
2023/05/02 14:31:14;;;;;;;11.30;2.20;;;;;;;;;;4943840;28;20047;-72
2023/05/02 14:33:43;;;;;;;9.38;1.90;;;;;;;;;;4955048;28;20065;-70
2023/05/02 14:36:12;;;;;;;7.13;1.80;;;;;;;;;;4942222;28;20051;-72
2023/05/02 14:38:38;;;;;;;5.85;1.83;;;;;;;;;;4937575;28;20063;-72
2023/05/02 14:41:08;;;;;;;6.47;1.95;;;;;;;;;;4945263;28;20051;-73
2023/05/02 14:43:36;;;;;;;5.57;1.67;;;;;;;;;;4955305;28;20083;-69
2023/05/02 14:46:04;;;;;;;5.78;1.70;;;;;;;;;;4949496;28;20050;-71
2023/05/02 14:48:36;;;;;;;7.65;2.00;;;;;;;;;;4968624;28;20051;-67
2023/05/02 14:51:03;;;;;;;6.88;1.83;;;;;;;;;;4980006;28;20066;-71
2023/05/02 14:53:30;;;;;;;5.25;1.90;;;;;;;;;;4968266;28;20145;-68
2023/05/02 14:55:56;;;;;;;6.07;1.65;;;;;;;;;;4959192;28;20065;-72
2023/05/02 14:58:22;;;;;;;6.13;1.95;;;;;;;;;;4963458;28;20133;-67
2023/05/02 15:00:51;;;;;;;7.85;1.70;;;;;;;;;;4955948;28;20058;-69
2023/05/02 15:03:17;;;;;;;5.20;1.42;;;;;;;;;;4955413;28;20059;-71
2023/05/02 15:05:44;;;;;;;3.67;1.58;;;;;;;;;;4960898;28;20058;-67
2023/05/02 15:08:10;;;;;;;5.70;1.50;;;;;;;;;;4958140;28;20074;-71
2023/05/02 15:10:37;;;;;;;8.15;1.95;;;;;;;;;;4977463;28;20059;-69
2023/05/02 15:13:04;;;;;;;5.80;1.77;;;;;;;;;;4957088;28;20209;-73
2023/05/02 15:15:31;;;;;;;8.38;1.77;;;;;;;;;;4953014;28;20059;-73
2023/05/02 15:17:59;;;;;;;7.78;1.88;;;;;;;;;;4964097;28;20085;-68
2023/05/02 15:20:25;;;;;;;4.10;1.65;;;;;;;;;;4982162;28;20125;-68
2023/05/02 15:22:51;;;;;;;5.25;1.52;;;;;;;;;;4950605;28;20047;-74
2023/05/02 15:25:19;;;;;;;7.45;1.60;;;;;;;;;;4965097;28;20065;-72
2023/05/02 15:27:45;;;;;;;5.78;1.73;;;;;;;;;;4949456;28;20055;-69
2023/05/02 15:30:14;;;;;;;5.47;1.60;;;;;;;;;;4966613;28;20236;-69
2023/05/02 15:32:41;;;;;;;3.83;1.52;;;;;;;;;;4956687;28;20058;-69
2023/05/02 15:35:11;;;;;;;6.15;1.52;;;;;;;;;;4954965;28;20058;-73
2023/05/02 15:37:39;;;;;;;6.28;2.10;;;;;;;;;;4925356;28;20167;-73
2023/05/02 15:40:10;;;;;;;3.92;1.70;;;;;;;;;;4927707;28;20059;-69
2023/05/02 15:42:39;;;;;;;5.30;1.60;;;;;;;;;;4932937;28;20055;-73
2023/05/02 15:45:10;;;;;;;7.28;1.50;;;;;;;;;;4949859;28;20146;-76
2023/05/02 15:47:40;;;;;;;4.20;1.70;;;;;;;;;;4961984;28;20083;-72
2023/05/02 15:50:06;;;;;;;6.95;1.90;;;;;;;;;;4962776;28;20054;-71
2023/05/02 15:52:37;;;;;;;9.25;1.70;;;;;;;;;;4952055;28;20058;-75
2023/05/02 15:55:06;;;;;;;6.28;1.63;;;;;;;;;;4949518;28;20063;-71
2023/05/02 15:57:36;;;;;;;5.93;1.55;;;;;;;;;;4976298;28;20082;-70
2023/05/02 16:00:10;;;;;;;8.27;1.92;;;;;;;;;;4975600;28;20089;-73
2023/05/02 16:02:39;;;;;;;7.03;1.55;;;;;;;;;;4949266;28;20062;-70
2023/05/02 16:05:06;;;;;;;3.88;1.75;;;;;;;;;;4966825;28;20130;-66
2023/05/02 16:07:32;;;;;;;3.42;2.10;;;;;;;;;;4967703;28;20050;-68
2023/05/02 16:10:00;;;;;;;4.95;1.83;;;;;;;;;;4959174;28;20074;-71
2023/05/02 16:12:32;;;;;;;6.30;1.50;;;;;;;;;;4965271;28;20055;-70
2023/05/02 16:15:22;;;;;;;8.27;1.67;;;;;;;;;;4954756;28;20050;-70
2023/05/02 16:17:57;;;;;;;5.15;1.52;;;;;;;;;;4958451;28;20059;-71
2023/05/02 16:20:27;;;;;;;7.03;1.77;;;;;;;;;;4959453;28;20137;-73
2023/05/02 16:23:11;;;;;;;7.03;1.58;;;;;;;;;;4950328;28;20065;-76
2023/05/02 16:25:40;;;;;;;4.40;1.60;;;;;;;;;;4954201;28;20309;-73
2023/05/02 16:28:06;;;;;;;4.75;1.60;;;;;;;;;;4979890;28;20054;-73
2023/05/02 16:30:36;;;;;;;3.97;1.85;;;;;;;;;;4956919;28;20058;-75
2023/05/02 16:33:03;;;;;;;5.97;1.80;;;;;;;;;;4964232;28;20116;-70
2023/05/02 16:35:29;;;;;;;4.72;1.50;;;;;;;;;;4939387;28;20390;-69
2023/05/02 16:37:57;;;;;;;8.93;1.88;;;;;;;;;;4964414;28;20085;-73
2023/05/02 16:40:27;;;;;;;4.03;1.50;;;;;;;;;;4959284;28;20077;-73
2023/05/02 16:42:56;;;;;;;5.30;1.73;;;;;;;;;;4959710;28;20055;-72
2023/05/02 16:45:22;;;;;;;8.43;1.98;;;;;;;;;;4927334;28;20054;-73
2023/05/02 16:47:49;;;;;;;5.15;1.88;;;;;;;;;;4961898;28;20054;-74
2023/05/02 16:50:21;;;;;;;3.95;1.40;;;;;;;;;;4957668;28;20094;-68
2023/05/02 16:52:47;;;;;;;4.15;1.50;;;;;;;;;;4955433;28;20086;-69
2023/05/02 16:55:14;;;;;;;5.32;1.48;;;;;;;;;;4962079;28;20066;-73
2023/05/02 16:57:41;;;;;;;2.80;1.40;;;;;;;;;;4961283;28;20073;-67
2023/05/02 17:00:13;;;;;;;4.30;1.50;;;;;;;;;;4961982;28;20082;-68
2023/05/02 17:02:40;;;;;;;3.78;1.48;;;;;;;;;;4953208;28;20054;-70
2023/05/02 17:05:09;;;;;;;8.63;1.60;;;;;;;;;;4933952;28;20126;-69
2023/05/02 17:07:35;;;;;;;5.90;1.40;;;;;;;;;;4960024;28;20073;-69
2023/05/02 17:10:04;;;;;;;6.15;1.65;;;;;;;;;;4960730;28;20094;-74
2023/05/02 17:12:33;;;;;;;3.25;1.33;;;;;;;;;;4956571;28;20058;-75
2023/05/02 17:15:06;;;;;;;5.25;1.35;;;;;;;;;;4928967;28;20057;-69
2023/05/02 17:17:36;;;;;;;4.18;1.35;;;;;;;;;;4956533;28;20069;-71
2023/05/02 17:20:08;;;;;;;4.10;1.55;;;;;;;;;;4976506;28;20054;-73
2023/05/02 17:22:41;;;;;;;2.85;1.20;;;;;;;;;;4971577;28;20093;-72
2023/05/02 17:25:10;;;;;;;4.55;1.50;;;;;;;;;;4949030;28;20058;-71
2023/05/02 17:27:36;;;;;;;;;;;;;;;;;;4947207;28;20375;-68
2023/05/02 17:30:05;;;;;;;6.05;1.30;;;;;;;;;;4961208;28;19926;-74
2023/05/02 17:32:39;;;;;;;3.35;1.35;;;;;;;;;;4957092;28;20050;-70
2023/05/02 17:35:08;;;;;;;5.65;1.63;;;;;;;;;;4958699;28;20055;-71
2023/05/02 17:37:38;;;;;;;3.38;1.27;;;;;;;;;;4958776;28;20058;-71
2023/05/02 17:40:06;;;;;;;1.88;1.02;;;;;;;;;;4959287;28;20062;-71
2023/05/02 17:42:43;;;;;;;2.03;1.10;;;;;;;;;;4956412;28;20138;-72
2023/05/02 17:45:10;;;;;;;1.80;1.08;;;;;;;;;;4959852;28;20148;-75
2023/05/02 17:47:38;;;;;;;5.13;1.40;;;;;;;;;;4958648;28;20145;-71
2023/05/02 17:50:08;;;;;;;7.38;1.30;;;;;;;;;;4961279;28;20063;-72
2023/05/02 17:52:34;;;;;;;2.53;1.02;;;;;;;;;;4957521;28;20121;-69
2023/05/02 17:55:01;;;;;;;7.15;1.30;;;;;;;;;;4956839;28;20058;-76
2023/05/02 17:57:27;;;;;;;4.30;1.33;;;;;;;;;;4951750;28;20058;-74
2023/05/02 17:59:57;;;;;;;2.53;1.00;;;;;;;;;;4958300;28;20174;-70
2023/05/02 18:02:27;;;;;;;4.80;1.45;;;;;;;;;;4961475;28;20142;-73
2023/05/02 18:04:54;;;;;;;3.35;1.42;;;;;;;;;;4953931;28;20050;-71
2023/05/02 18:07:28;;;;;;;6.32;1.50;;;;;;;;;;4959504;28;20058;-72
2023/05/02 18:09:55;;;;;;;4.32;1.20;;;;;;;;;;4958177;28;20133;-72
2023/05/02 18:12:24;;;;;;;3.83;1.30;;;;;;;;;;4961072;28;20054;-70
2023/05/02 18:14:54;;;;;;;2.90;1.00;;;;;;;;;;4941343;28;20051;-75
2023/05/02 18:17:20;;;;;;;2.45;1.10;;;;;;;;;;4942380;28;20131;-67
2023/05/02 18:19:49;;;;;;;2.63;1.20;;;;;;;;;;4963472;28;20065;-72
2023/05/02 18:22:26;;;;;;;4.47;1.20;;;;;;;;;;4961096;28;20101;-69
2023/05/02 18:24:53;;;;;;;;;;;;;;;;;;4949158;28;20043;-69
2023/05/02 18:27:19;;;;;;;2.80;1.10;;;;;;;;;;4963918;28;19929;-68
2023/05/02 18:29:45;;;;;;;2.85;1.20;;;;;;;;;;4960436;28;20059;-72
2023/05/02 18:32:13;;;;;;;2.38;1.08;;;;;;;;;;4962545;28;20088;-68
2023/05/02 18:34:41;;;;;;;4.60;1.23;;;;;;;;;;4946567;28;20050;-70
2023/05/02 18:37:08;;;;;;;7.72;1.30;;;;;;;;;;4974063;28;20063;-67
2023/05/02 18:39:36;;;;;;;16.42;1.92;;;;;;;;;;4958733;28;20117;-68
2023/05/02 18:42:03;;;;;;;58.00;4.75;;;;;;;;;;4976301;28;20125;-68
2023/05/02 18:44:32;;;;;;;170.40;15.63;;;;;;;;;;4959991;28;20051;-74
2023/05/02 18:46:59;;;;;;;270.58;21.58;;;;;;;;;;4956514;28;20141;-69
2023/05/02 18:49:32;;;;;;;256.38;22.00;;;;;;;;;;4957165;28;20055;-73
2023/05/02 18:52:02;;;;;;;200.35;19.35;;;;;;;;;;4971262;28;20073;-68
2023/05/02 18:54:30;;;;;;;182.10;18.42;;;;;;;;;;4955015;28;20050;-70
2023/05/02 18:57:02;;;;;;;164.63;17.38;;;;;;;;;;4961052;28;20069;-68
2023/05/02 18:59:28;;;;;;;142.00;15.98;;;;;;;;;;4961638;28;20054;-70
2023/05/02 19:01:56;;;;;;;158.48;16.40;;;;;;;;;;4956774;28;20070;-69
2023/05/02 19:04:23;;;;;;;111.13;14.07;;;;;;;;;;4965307;28;20090;-70
2023/05/02 19:06:50;;;;;;;103.25;12.00;;;;;;;;;;4947165;28;20078;-69
2023/05/02 19:09:19;;;;;;;112.80;11.82;;;;;;;;;;4962430;28;20090;-70
2023/05/02 19:11:48;;;;;;;87.82;10.88;;;;;;;;;;4962451;28;20066;-74
2023/05/02 19:14:16;;;;;;;80.85;10.20;;;;;;;;;;4952880;28;20050;-67
2023/05/02 19:16:43;;;;;;;83.68;9.75;;;;;;;;;;4937077;28;20062;-71
2023/05/02 19:19:10;;;;;;;64.95;9.02;;;;;;;;;;4965332;28;20055;-73
2023/05/02 19:21:36;;;;;;;72.47;8.68;;;;;;;;;;4963188;28;20058;-73
2023/05/02 19:24:03;;;;;;;65.22;8.15;;;;;;;;;;4962675;28;20062;-72
2023/05/02 19:26:30;;;;;;;58.28;7.88;;;;;;;;;;4942806;28;20061;-72
2023/05/02 19:28:56;;;;;;;52.53;6.57;;;;;;;;;;4973611;28;21907;-72
2023/05/02 19:31:24;;;;;;;39.75;6.38;;;;;;;;;;4977039;28;20062;-70
2023/05/02 19:33:51;;;;;;;34.95;5.43;;;;;;;;;;4963238;28;20193;-71
2023/05/02 19:36:18;;;;;;;40.10;6.30;;;;;;;;;;4960759;28;20163;-72
2023/05/02 19:38:47;;;;;;;31.10;5.22;;;;;;;;;;4952799;28;20093;-70
2023/05/02 19:41:14;;;;;;;39.05;5.95;;;;;;;;;;4963994;28;20137;-71
2023/05/02 19:43:41;;;;;;;37.40;5.22;;;;;;;;;;4963214;28;20113;-68
2023/05/02 19:46:07;;;;;;;30.77;4.28;;;;;;;;;;4951876;28;20142;-71
2023/05/02 19:48:36;;;;;;;30.98;4.05;;;;;;;;;;4973185;28;20069;-69
2023/05/02 19:51:03;;;;;;;28.00;4.43;;;;;;;;;;4963475;28;20102;-69
2023/05/02 19:53:30;;;;;;;26.40;3.63;;;;;;;;;;4959344;28;20062;-70
2023/05/02 19:55:57;;;;;;;22.88;3.55;;;;;;;;;;4961417;28;20145;-69
2023/05/02 19:58:24;;;;;;;27.85;3.88;;;;;;;;;;4957602;28;20062;-71
2023/05/02 20:00:51;;;;;;;23.25;3.35;;;;;;;;;;4953798;28;20169;-69
2023/05/02 20:03:17;;;;;;;26.83;3.63;;;;;;;;;;4975916;28;20121;-71
2023/05/02 20:05:45;;;;;;;19.05;3.88;;;;;;;;;;4961738;28;20105;-70
2023/05/02 20:08:12;;;;;;;30.52;3.28;;;;;;;;;;4959516;28;20070;-72
2023/05/02 20:10:38;;;;;;;20.58;2.50;;;;;;;;;;4960139;28;20089;-71
2023/05/02 20:13:05;;;;;;;14.63;2.70;;;;;;;;;;4959330;28;20051;-71
2023/05/02 20:15:31;;;;;;;16.77;2.88;;;;;;;;;;4962058;28;20061;-70
2023/05/02 20:18:00;;;;;;;11.75;2.33;;;;;;;;;;4956644;28;20158;-70
2023/05/02 20:20:27;;;;;;;14.07;2.67;;;;;;;;;;4973087;28;20071;-69
2023/05/02 20:22:56;;;;;;;13.98;2.30;;;;;;;;;;4960522;28;20089;-73
2023/05/02 20:25:23;;;;;;;10.38;2.25;;;;;;;;;;4946546;28;20054;-72
2023/05/02 20:27:50;;;;;;;9.77;2.47;;;;;;;;;;4962159;28;20054;-67
2023/05/02 20:30:17;;;;;;;13.63;2.45;;;;;;;;;;4957633;28;20071;-67
2023/05/02 20:32:43;;;;;;;12.57;2.22;;;;;;;;;;4952644;28;20058;-72
2023/05/02 20:35:10;;;;;;;12.60;2.20;;;;;;;;;;4960809;28;20086;-70
2023/05/02 20:37:36;;;;;;;10.60;1.90;;;;;;;;;;4963210;28;20086;-71
2023/05/02 20:40:08;;;;;;;8.90;2.00;;;;;;;;;;4957286;28;20177;-71
2023/05/02 20:42:37;;;;;;;10.32;2.10;;;;;;;;;;4959920;28;20069;-71
2023/05/02 20:45:06;;;;;;;10.45;2.00;;;;;;;;;;4944202;28;20108;-67
2023/05/02 20:47:32;;;;;;;;;;;;;;;;;;4963444;28;20065;-68
2023/05/02 20:49:58;;;;;;;8.52;1.90;;;;;;;;;;4960745;28;19972;-68
2023/05/02 20:52:25;;;;;;;8.07;2.00;;;;;;;;;;4962077;28;20055;-70
2023/05/02 20:54:53;;;;;;;8.30;1.63;;;;;;;;;;4954504;28;20058;-69
2023/05/02 20:57:21;;;;;;;11.38;1.88;;;;;;;;;;4963878;28;20103;-68